createdAt,value
2023-04-09T00:00:05.451Z,77.4743
2023-04-09T00:01:08.533Z,77.6161
2023-04-09T00:02:11.697Z,77.6455
2023-04-09T00:03:15.106Z,77.6595
2023-04-09T00:04:18.346Z,77.7212
2023-04-09T00:05:21.384Z,77.6379
2023-04-09T00:06:24.468Z,77.6208
2023-04-09T00:07:27.553Z,77.7405
2023-04-09T00:08:30.664Z,77.8312
2023-04-09T00:09:33.738Z,77.9565
2023-04-09T00:10:36.804Z,78.0423
2023-04-09T00:11:39.869Z,78.0873
2023-04-09T00:12:42.981Z,78.2313
2023-04-09T00:13:46.108Z,78.3108
2023-04-09T00:14:49.184Z,78.1414
2023-04-09T00:15:52.299Z,78.0888
2023-04-09T00:16:55.329Z,78.2237
2023-04-09T00:17:58.627Z,78.4248
2023-04-09T00:19:01.717Z,78.7900
2023-04-09T00:20:04.814Z,79.0018
2023-04-09T00:21:07.898Z,79.2157
2023-04-09T00:22:10.997Z,79.4175
2023-04-09T00:23:14.047Z,79.3566
2023-04-09T00:24:17.142Z,79.4293
2023-04-09T00:25:20.235Z,79.5837
2023-04-09T00:26:23.345Z,79.5051
2023-04-09T00:27:26.400Z,79.4017
2023-04-09T00:28:29.478Z,79.5140
2023-04-09T00:29:32.560Z,79.6576
2023-04-09T00:30:35.639Z,79.8167
2023-04-09T00:31:38.753Z,79.9451
2023-04-09T00:32:41.831Z,80.0499
2023-04-09T00:33:45.021Z,80.0298
2023-04-09T00:34:48.120Z,79.9638
2023-04-09T00:35:51.239Z,80.0372
2023-04-09T00:36:54.298Z,80.2263
2023-04-09T00:37:57.349Z,80.2778
2023-04-09T00:39:00.449Z,80.1712
2023-04-09T00:40:03.523Z,80.1793
2023-04-09T00:41:06.619Z,80.3759
2023-04-09T00:42:09.694Z,80.5525
2023-04-09T00:43:12.823Z,80.6400
2023-04-09T00:44:15.896Z,80.7024
2023-04-09T00:45:18.988Z,80.7992
2023-04-09T00:46:22.319Z,80.9181
2023-04-09T00:47:25.369Z,81.0463
2023-04-09T00:48:28.716Z,81.0730
2023-04-09T00:49:31.789Z,81.0801
2023-04-09T00:50:34.885Z,81.1555
2023-04-09T00:51:37.951Z,81.2261
2023-04-09T00:52:41.049Z,81.2543
2023-04-09T00:53:44.105Z,81.2867
2023-04-09T00:54:47.205Z,81.3377
2023-04-09T00:55:50.300Z,81.3148
2023-04-09T00:56:53.395Z,81.3275
2023-04-09T00:57:56.425Z,81.3464
2023-04-09T00:58:59.535Z,81.4074
2023-04-09T01:00:02.613Z,81.3927
2023-04-09T01:01:05.744Z,81.4422
2023-04-09T01:02:08.846Z,81.4080
2023-04-09T01:03:12.036Z,81.4400
2023-04-09T01:04:15.082Z,81.5542
2023-04-09T01:05:18.195Z,81.6047
2023-04-09T01:06:21.507Z,81.5621
2023-04-09T01:07:24.600Z,81.5308
2023-04-09T01:08:28.012Z,81.4952
2023-04-09T01:09:31.111Z,81.3795
2023-04-09T01:10:34.179Z,81.3597
2023-04-09T01:11:37.484Z,81.4112
2023-04-09T01:12:40.545Z,81.4959
2023-04-09T01:13:43.933Z,81.5326
2023-04-09T01:14:47.034Z,81.5757
2023-04-09T01:15:50.125Z,81.6051
2023-04-09T01:16:53.655Z,81.6053
2023-04-09T01:17:56.779Z,81.5299
2023-04-09T01:18:59.956Z,81.4543
2023-04-09T01:20:03.025Z,81.4390
2023-04-09T01:21:06.164Z,81.3824
2023-04-09T01:22:09.226Z,81.4739
2023-04-09T01:23:12.285Z,81.6682
2023-04-09T01:24:15.409Z,81.6797
2023-04-09T01:25:18.451Z,81.6282
2023-04-09T01:26:21.572Z,81.5847
2023-04-09T01:27:24.658Z,81.6264
2023-04-09T01:28:27.765Z,81.6986
2023-04-09T01:29:30.824Z,81.8076
2023-04-09T01:30:33.920Z,81.9323
2023-04-09T01:31:37.015Z,82.0075
2023-04-09T01:32:40.164Z,82.0241
2023-04-09T01:33:43.297Z,82.0071
2023-04-09T01:34:46.396Z,81.9814
2023-04-09T01:35:49.557Z,82.0018
2023-04-09T01:36:52.601Z,82.0547
2023-04-09T01:37:55.676Z,82.0589
2023-04-09T01:38:58.769Z,82.0981
2023-04-09T01:40:01.832Z,82.0877
2023-04-09T01:41:04.911Z,81.9723
2023-04-09T01:42:07.997Z,81.8412
2023-04-09T01:43:11.076Z,81.8497
2023-04-09T01:44:14.363Z,81.8731
2023-04-09T01:45:17.437Z,81.9150
2023-04-09T01:46:20.870Z,81.9876
2023-04-09T01:47:24.007Z,82.0203
2023-04-09T01:48:27.078Z,82.0355
2023-04-09T01:49:30.166Z,82.0189
2023-04-09T01:50:33.256Z,82.0204
2023-04-09T01:51:36.349Z,81.9086
2023-04-09T01:52:39.445Z,81.7835
2023-04-09T01:53:42.530Z,81.7996
2023-04-09T01:54:45.584Z,81.8017
2023-04-09T01:55:48.694Z,81.7836
2023-04-09T01:56:51.750Z,81.9239
2023-04-09T01:57:54.865Z,81.9902
2023-04-09T01:58:57.944Z,82.0192
2023-04-09T02:00:01.001Z,82.1130
2023-04-09T02:01:04.098Z,82.2574
2023-04-09T02:02:07.172Z,82.3315
2023-04-09T02:03:10.309Z,82.4318
2023-04-09T02:04:13.358Z,82.5399
2023-04-09T02:05:23.977Z,82.5415
2023-04-09T02:06:27.103Z,82.5599
2023-04-09T02:07:30.172Z,82.5447
2023-04-09T02:08:33.420Z,82.5692
2023-04-09T02:09:36.533Z,82.6719
2023-04-09T02:10:39.705Z,82.7735
2023-04-09T02:11:42.792Z,82.8458
2023-04-09T02:12:45.937Z,82.9118
2023-04-09T02:13:49.073Z,82.9572
2023-04-09T02:14:52.135Z,83.0656
2023-04-09T02:15:55.231Z,83.1609
2023-04-09T02:16:58.297Z,83.2121
2023-04-09T02:18:01.416Z,83.2787
2023-04-09T02:19:04.503Z,83.3251
2023-04-09T02:20:07.600Z,83.3869
2023-04-09T02:21:10.666Z,83.4699
2023-04-09T02:22:13.798Z,83.5463
2023-04-09T02:23:16.881Z,83.5571
2023-04-09T02:24:20.130Z,83.5606
2023-04-09T02:25:23.201Z,83.5826
2023-04-09T02:26:26.539Z,83.5781
2023-04-09T02:27:29.626Z,83.5468
2023-04-09T02:28:32.732Z,83.5617
2023-04-09T02:29:35.808Z,83.5399
2023-04-09T02:30:38.915Z,83.5621
2023-04-09T02:31:42.014Z,83.5989
2023-04-09T02:32:45.115Z,83.5876
2023-04-09T02:33:48.175Z,83.5496
2023-04-09T02:34:51.396Z,83.5187
2023-04-09T02:35:54.459Z,83.4485
2023-04-09T02:36:57.657Z,83.3547
2023-04-09T02:38:00.736Z,83.2743
2023-04-09T02:39:03.871Z,83.2041
2023-04-09T02:40:06.953Z,83.2082
2023-04-09T02:41:10.068Z,83.2546
2023-04-09T02:42:13.186Z,83.2808
2023-04-09T02:43:16.255Z,83.2939
2023-04-09T02:44:19.574Z,83.2903
2023-04-09T02:45:22.677Z,83.3012
2023-04-09T02:46:26.048Z,83.3131
2023-04-09T02:47:29.112Z,83.2664
2023-04-09T02:48:32.212Z,83.2263
2023-04-09T02:49:35.290Z,83.2720
2023-04-09T02:50:38.448Z,83.3396
2023-04-09T02:51:41.508Z,83.3791
2023-04-09T02:52:44.628Z,83.3618
2023-04-09T02:53:47.694Z,83.3386
2023-04-09T02:54:50.780Z,83.3016
2023-04-09T02:55:53.888Z,83.1286
2023-04-09T02:56:56.992Z,83.0412
2023-04-09T02:58:00.079Z,82.9475
2023-04-09T02:59:03.167Z,82.8370
2023-04-09T03:00:06.251Z,82.7278
2023-04-09T03:01:09.366Z,82.6485
2023-04-09T03:02:12.474Z,82.6144
2023-04-09T03:03:15.705Z,82.5520
2023-04-09T03:04:18.907Z,82.5129
2023-04-09T03:05:22.038Z,82.4719
2023-04-09T03:06:25.186Z,82.4949
2023-04-09T03:07:28.221Z,82.4940
2023-04-09T03:08:31.300Z,82.4931
2023-04-09T03:09:34.411Z,82.4045
2023-04-09T03:10:37.482Z,82.2709
2023-04-09T03:11:40.857Z,82.0334
2023-04-09T03:12:43.915Z,81.8042
2023-04-09T03:13:46.997Z,81.7328
2023-04-09T03:14:50.082Z,81.7045
2023-04-09T03:15:53.196Z,81.5978
2023-04-09T03:16:56.291Z,81.5090
2023-04-09T03:17:59.507Z,81.5802
2023-04-09T03:19:02.595Z,81.7201
2023-04-09T03:20:05.690Z,81.8516
2023-04-09T03:21:08.764Z,81.7989
2023-04-09T03:22:11.897Z,81.9424
2023-04-09T03:23:15.019Z,82.1096
2023-04-09T03:24:18.112Z,82.2241
2023-04-09T03:25:21.215Z,82.3240
2023-04-09T03:26:24.298Z,82.4267
2023-04-09T03:27:27.438Z,82.4572
2023-04-09T03:28:30.528Z,82.5612
2023-04-09T03:29:33.621Z,82.4857
2023-04-09T03:30:36.710Z,82.4043
2023-04-09T03:31:39.877Z,82.4704
2023-04-09T03:32:43.035Z,82.5594
2023-04-09T03:33:46.146Z,82.5355
2023-04-09T03:34:49.220Z,82.6431
2023-04-09T03:35:52.380Z,82.7479
2023-04-09T03:36:55.451Z,82.8312
2023-04-09T03:37:58.572Z,82.8806
2023-04-09T03:39:01.814Z,82.9423
2023-04-09T03:40:04.949Z,83.0494
2023-04-09T03:41:08.032Z,82.9396
2023-04-09T03:42:11.105Z,82.8368
2023-04-09T03:43:14.201Z,82.8422
2023-04-09T03:44:17.570Z,82.8570
2023-04-09T03:45:20.642Z,82.8201
2023-04-09T03:46:23.935Z,82.7902
2023-04-09T03:47:27.084Z,82.7758
2023-04-09T03:48:30.166Z,82.7072
2023-04-09T03:49:33.248Z,82.6827
2023-04-09T03:50:36.334Z,82.6453
2023-04-09T03:51:39.671Z,82.5671
2023-04-09T03:52:42.772Z,82.2992
2023-04-09T03:53:45.868Z,82.2757
2023-04-09T03:54:49.116Z,82.3417
2023-04-09T03:55:52.176Z,82.3936
2023-04-09T03:56:55.271Z,82.5224
2023-04-09T03:57:58.362Z,82.4983
2023-04-09T03:59:01.658Z,82.5677
2023-04-09T04:00:04.745Z,82.5752
2023-04-09T04:01:07.837Z,82.6530
2023-04-09T04:02:11.211Z,82.8457
2023-04-09T04:03:14.552Z,83.1947
2023-04-09T04:04:18.005Z,83.5726
2023-04-09T04:05:18.502Z,83.9410
2023-04-09T04:06:21.592Z,84.3028
2023-04-09T04:07:24.689Z,84.5193
2023-04-09T04:08:27.785Z,84.7260
2023-04-09T04:09:30.941Z,84.8267
2023-04-09T04:10:34.013Z,84.8886
2023-04-09T04:11:37.300Z,84.9991
2023-04-09T04:12:40.375Z,85.0606
2023-04-09T04:13:43.487Z,84.9756
2023-04-09T04:14:46.606Z,84.8636
2023-04-09T04:15:49.681Z,84.7337
2023-04-09T04:16:52.843Z,84.6007
2023-04-09T04:17:55.931Z,84.4004
2023-04-09T04:18:58.995Z,84.0844
2023-04-09T04:20:02.122Z,83.7676
2023-04-09T04:21:05.215Z,83.5450
2023-04-09T04:22:08.306Z,83.4764
2023-04-09T04:23:11.378Z,83.4214
2023-04-09T04:24:14.493Z,83.4752
2023-04-09T04:25:17.592Z,83.4526
2023-04-09T04:26:20.703Z,83.3896
2023-04-09T04:27:23.796Z,83.3865
2023-04-09T04:28:26.890Z,83.5292
2023-04-09T04:29:28.153Z,83.6280
2023-04-09T04:30:31.308Z,83.8620
2023-04-09T04:31:34.396Z,84.1582
2023-04-09T04:32:37.717Z,84.6144
2023-04-09T04:33:40.810Z,85.0661
2023-04-09T04:34:43.883Z,85.4944
2023-04-09T04:35:47.046Z,85.7522
2023-04-09T04:36:50.112Z,85.7588
2023-04-09T04:37:53.207Z,85.7634
2023-04-09T04:38:56.310Z,85.7942
2023-04-09T04:39:59.403Z,85.8871
2023-04-09T04:41:02.511Z,86.1138
2023-04-09T04:42:05.766Z,86.3007
2023-04-09T04:43:08.882Z,86.4139
2023-04-09T04:44:11.984Z,86.4365
2023-04-09T04:45:15.062Z,86.4663
2023-04-09T04:46:18.236Z,86.4212
2023-04-09T04:47:21.376Z,86.4248
2023-04-09T04:48:24.452Z,86.4087
2023-04-09T04:49:27.767Z,86.3299
2023-04-09T04:50:30.886Z,86.2803
2023-04-09T04:51:33.987Z,86.2201
2023-04-09T04:52:37.146Z,86.1974
2023-04-09T04:53:40.233Z,86.1872
2023-04-09T04:54:43.537Z,86.2338
2023-04-09T04:55:46.618Z,86.2286
2023-04-09T04:56:49.756Z,86.2148
2023-04-09T04:57:52.839Z,86.2370
2023-04-09T04:58:55.928Z,86.1922
2023-04-09T04:59:59.032Z,86.1379
2023-04-09T05:01:02.201Z,86.1542
2023-04-09T05:02:05.332Z,86.1450
2023-04-09T05:03:08.611Z,86.0909
2023-04-09T05:04:11.712Z,85.9640
2023-04-09T05:05:14.907Z,85.7949
2023-04-09T05:06:18.002Z,85.6397
2023-04-09T05:07:21.145Z,85.5250
2023-04-09T05:08:24.250Z,85.4084
2023-04-09T05:09:27.337Z,85.2740
2023-04-09T05:10:30.445Z,85.2038
2023-04-09T05:11:33.535Z,85.1709
2023-04-09T05:12:36.661Z,85.0863
2023-04-09T05:13:39.729Z,84.8783
2023-04-09T05:14:42.862Z,84.7294
2023-04-09T05:15:45.965Z,84.5255
2023-04-09T05:16:49.113Z,84.2388
2023-04-09T05:17:52.185Z,84.0946
2023-04-09T05:18:55.480Z,83.8184
2023-04-09T05:19:58.568Z,83.7599
2023-04-09T05:21:01.696Z,83.7447
2023-04-09T05:22:04.837Z,83.7914
2023-04-09T05:23:07.918Z,83.8268
2023-04-09T05:24:11.020Z,83.8334
2023-04-09T05:25:14.134Z,83.8475
2023-04-09T05:26:17.202Z,83.7844
2023-04-09T05:27:20.378Z,83.6834
2023-04-09T05:28:23.507Z,83.6720
2023-04-09T05:29:23.935Z,83.7092
2023-04-09T05:30:27.062Z,83.7553
2023-04-09T05:31:30.184Z,83.8146
2023-04-09T05:32:33.633Z,83.8638
2023-04-09T05:33:36.736Z,83.9086
2023-04-09T05:34:40.122Z,83.9365
2023-04-09T05:35:43.274Z,83.9339
2023-04-09T05:36:46.388Z,83.9332
2023-04-09T05:37:49.532Z,83.9491
2023-04-09T05:38:52.982Z,83.9894
2023-04-09T05:39:52.727Z,84.0163
2023-04-09T05:40:55.883Z,84.0974
2023-04-09T05:41:59.024Z,84.1211
2023-04-09T05:43:02.217Z,84.0736
2023-04-09T05:44:05.401Z,84.0913
2023-04-09T05:45:08.539Z,84.0817
2023-04-09T05:46:11.696Z,84.0528
2023-04-09T05:47:14.807Z,84.0128
2023-04-09T05:48:17.980Z,84.0013
2023-04-09T05:49:21.144Z,83.9971
2023-04-09T05:50:24.262Z,83.9818
2023-04-09T05:51:27.385Z,84.0008
2023-04-09T05:52:30.813Z,84.1004
2023-04-09T05:53:33.958Z,84.1412
2023-04-09T05:54:37.359Z,84.0738
2023-04-09T05:55:40.471Z,84.0263
2023-04-09T05:56:43.605Z,83.9471
2023-04-09T05:57:46.993Z,83.8695
2023-04-09T05:58:50.119Z,83.8171
2023-04-09T05:59:53.241Z,83.7643
2023-04-09T06:00:56.407Z,83.7358
2023-04-09T06:01:59.548Z,83.7377
2023-04-09T06:03:01.012Z,83.7407
2023-04-09T06:04:04.726Z,83.7686
2023-04-09T06:05:04.767Z,83.7838
2023-04-09T06:06:07.890Z,83.7789
2023-04-09T06:07:11.056Z,83.7534
2023-04-09T06:08:14.162Z,83.7553
2023-04-09T06:09:17.317Z,83.6961
2023-04-09T06:10:20.457Z,83.6984
2023-04-09T06:11:23.609Z,83.7157
2023-04-09T06:12:26.981Z,83.7692
2023-04-09T06:13:30.160Z,83.8148
2023-04-09T06:14:33.314Z,83.8377
2023-04-09T06:15:36.489Z,83.8731
2023-04-09T06:16:39.633Z,83.9201
2023-04-09T06:17:42.840Z,83.9371
2023-04-09T06:18:45.939Z,83.9802
2023-04-09T06:19:49.374Z,83.9747
2023-04-09T06:20:52.548Z,83.9977
2023-04-09T06:21:55.691Z,84.0096
2023-04-09T06:22:55.685Z,84.0360
2023-04-09T06:23:58.827Z,84.0782
2023-04-09T06:25:01.961Z,84.0760
2023-04-09T06:26:05.083Z,84.0544
2023-04-09T06:27:08.223Z,83.9564
2023-04-09T06:28:11.635Z,83.9383
2023-04-09T06:29:14.748Z,83.9789
2023-04-09T06:30:18.118Z,83.8807
2023-04-09T06:31:21.256Z,83.7985
2023-04-09T06:32:24.383Z,83.6853
2023-04-09T06:33:27.534Z,83.5633
2023-04-09T06:34:30.684Z,83.4485
2023-04-09T06:35:34.093Z,83.4345
2023-04-09T06:36:37.180Z,83.4407
2023-04-09T06:37:40.453Z,83.4230
2023-04-09T06:38:43.630Z,83.3112
2023-04-09T06:39:58.176Z,83.0971
2023-04-09T06:40:49.042Z,83.0899
2023-04-09T06:41:52.161Z,83.1063
2023-04-09T06:42:55.514Z,83.1776
2023-04-09T06:43:58.622Z,83.4202
2023-04-09T06:45:01.772Z,83.8171
2023-04-09T06:46:04.937Z,83.6377
2023-04-09T06:47:08.064Z,83.3534
2023-04-09T06:48:11.257Z,83.1918
2023-04-09T06:49:14.386Z,82.7117
2023-04-09T06:50:17.536Z,82.0471
2023-04-09T06:51:20.652Z,81.5754
2023-04-09T06:52:23.829Z,81.9101
2023-04-09T06:53:27.010Z,81.6348
2023-04-09T06:54:30.143Z,80.3824
2023-04-09T06:55:33.304Z,79.9847
2023-04-09T06:56:36.450Z,80.2070
2023-04-09T06:57:39.674Z,79.1345
2023-04-09T06:58:42.825Z,78.6480
2023-04-09T06:59:45.931Z,78.2399
2023-04-09T07:00:49.072Z,78.1924
2023-04-09T07:01:54.570Z,77.1995
2023-04-09T07:02:54.522Z,77.4781
2023-04-09T07:03:58.034Z,77.6910
2023-04-09T07:04:57.856Z,77.4170
2023-04-09T07:06:00.958Z,77.7673
2023-04-09T07:07:04.084Z,78.0615
2023-04-09T07:08:07.218Z,78.4012
2023-04-09T07:09:10.463Z,78.6457
2023-04-09T07:10:13.587Z,78.7358
2023-04-09T07:11:16.714Z,78.9017
2023-04-09T07:12:19.843Z,78.8637
2023-04-09T07:13:22.995Z,78.6627
2023-04-09T07:14:26.166Z,78.3726
2023-04-09T07:15:29.305Z,78.3203
2023-04-09T07:16:32.602Z,78.2087
2023-04-09T07:17:35.772Z,78.6275
2023-04-09T07:18:38.903Z,78.5620
2023-04-09T07:19:42.049Z,78.0869
2023-04-09T07:20:45.208Z,77.1750
2023-04-09T07:21:48.354Z,77.3377
2023-04-09T07:22:51.469Z,77.1972
2023-04-09T07:23:54.876Z,76.7493
2023-04-09T07:24:54.668Z,76.7770
2023-04-09T07:25:57.808Z,76.9670
2023-04-09T07:27:00.932Z,76.7851
2023-04-09T07:28:04.279Z,77.4265
2023-04-09T07:29:07.435Z,77.4958
2023-04-09T07:30:10.587Z,77.2175
2023-04-09T07:31:13.705Z,75.0811
2023-04-09T07:32:16.877Z,74.7799
2023-04-09T07:33:20.003Z,75.0942
2023-04-09T07:34:23.185Z,75.2240
2023-04-09T07:35:26.321Z,75.3512
2023-04-09T07:36:29.573Z,75.8721
2023-04-09T07:37:32.767Z,75.7200
2023-04-09T07:38:36.291Z,76.0566
2023-04-09T07:39:39.404Z,76.4850
2023-04-09T07:40:42.584Z,76.7064
2023-04-09T07:41:45.718Z,76.1975
2023-04-09T07:42:48.886Z,76.0379
2023-04-09T07:43:51.990Z,76.1495
2023-04-09T07:44:55.117Z,74.5569
2023-04-09T07:45:58.596Z,70.5364
2023-04-09T07:47:01.846Z,70.1288
2023-04-09T07:48:05.229Z,70.4892
2023-04-09T07:49:08.392Z,70.2631
2023-04-09T07:50:11.588Z,70.4197
2023-04-09T07:51:14.691Z,70.7213
2023-04-09T07:52:17.837Z,69.3342
2023-04-09T07:53:21.213Z,69.1704
2023-04-09T07:54:24.392Z,69.4503
2023-04-09T07:55:27.506Z,69.7039
2023-04-09T07:56:30.662Z,69.7651
2023-04-09T07:57:33.821Z,68.8483
2023-04-09T07:58:36.970Z,69.0251
2023-04-09T07:59:40.111Z,69.3970
2023-04-09T08:00:43.237Z,68.8946
2023-04-09T08:01:46.511Z,66.9027
2023-04-09T08:02:46.616Z,66.6448
2023-04-09T08:03:50.061Z,66.9845
2023-04-09T08:04:49.953Z,67.1911
2023-04-09T08:05:51.221Z,66.6585
2023-04-09T08:06:54.333Z,66.4015
2023-04-09T08:07:57.502Z,65.7193
2023-04-09T08:09:00.635Z,65.4520
2023-04-09T08:10:03.810Z,65.1614
2023-04-09T08:11:06.957Z,65.3502
2023-04-09T08:12:10.101Z,65.3491
2023-04-09T08:13:13.273Z,64.9987
2023-04-09T08:14:16.450Z,65.0419
2023-04-09T08:15:19.550Z,64.9900
2023-04-09T08:16:22.715Z,64.0411
2023-04-09T08:17:25.885Z,64.6233
2023-04-09T08:18:28.996Z,64.4234
2023-04-09T08:19:32.178Z,63.7250
2023-04-09T08:20:35.307Z,62.5467
2023-04-09T08:21:38.467Z,61.3786
2023-04-09T08:22:41.568Z,60.3156
2023-04-09T08:23:44.729Z,59.5074
2023-04-09T08:24:47.852Z,58.2648
2023-04-09T08:25:50.990Z,57.8697
2023-04-09T08:26:54.179Z,57.4838
2023-04-09T08:27:57.341Z,57.0441
2023-04-09T08:29:00.451Z,56.3710
2023-04-09T08:30:03.674Z,55.7030
2023-04-09T08:31:06.834Z,54.9008
2023-04-09T08:32:10.008Z,54.4357
2023-04-09T08:33:13.154Z,54.1974
2023-04-09T08:34:16.303Z,53.8813
2023-04-09T08:35:19.457Z,53.5140
2023-04-09T08:36:22.655Z,53.6941
2023-04-09T08:37:25.766Z,53.4523
2023-04-09T08:38:28.989Z,53.1279
2023-04-09T08:39:32.095Z,53.1247
2023-04-09T08:40:35.225Z,53.2002
2023-04-09T08:41:38.339Z,52.7626
2023-04-09T08:42:41.525Z,52.4603
2023-04-09T08:43:56.911Z,51.9466
2023-04-09T08:44:46.709Z,51.7218
2023-04-09T08:45:49.839Z,50.9571
2023-04-09T08:46:52.940Z,50.5053
2023-04-09T08:47:56.326Z,50.5941
2023-04-09T08:48:59.413Z,50.4230
2023-04-09T08:50:02.542Z,49.8752
2023-04-09T08:51:05.668Z,49.2835
2023-04-09T08:52:08.825Z,48.3297
2023-04-09T08:53:11.978Z,47.8675
2023-04-09T08:54:15.109Z,47.5597
2023-04-09T08:55:18.227Z,47.3140
2023-04-09T08:56:21.378Z,46.8952
2023-04-09T08:57:24.492Z,46.4637
2023-04-09T08:58:27.701Z,46.0022
2023-04-09T08:59:30.873Z,45.3991
2023-04-09T09:00:34.132Z,45.0207
2023-04-09T09:01:37.398Z,45.3663
2023-04-09T09:02:40.605Z,45.7235
2023-04-09T09:03:43.793Z,45.7414
2023-04-09T09:04:46.948Z,45.4137
2023-04-09T09:05:50.047Z,45.0919
2023-04-09T09:06:54.783Z,44.5344
2023-04-09T09:07:55.776Z,44.0826
2023-04-09T09:08:58.922Z,43.8212
2023-04-09T09:10:02.056Z,43.5808
2023-04-09T09:11:05.202Z,43.0918
2023-04-09T09:12:08.327Z,42.5275
2023-04-09T09:13:11.448Z,41.9065
2023-04-09T09:14:14.604Z,41.3302
2023-04-09T09:15:17.737Z,41.0267
2023-04-09T09:16:20.967Z,40.4666
2023-04-09T09:17:24.122Z,40.1680
2023-04-09T09:18:27.241Z,40.2522
2023-04-09T09:19:30.411Z,40.0556
2023-04-09T09:20:33.566Z,39.7784
2023-04-09T09:21:36.730Z,39.7644
2023-04-09T09:22:39.834Z,39.2152
2023-04-09T09:23:42.964Z,38.8477
2023-04-09T09:24:47.622Z,38.5413
2023-04-09T09:25:48.039Z,38.4695
2023-04-09T09:26:51.178Z,38.8336
2023-04-09T09:27:54.359Z,39.2139
2023-04-09T09:28:57.488Z,39.2792
2023-04-09T09:30:00.649Z,39.2008
2023-04-09T09:31:03.794Z,39.1621
2023-04-09T09:32:06.930Z,39.0201
2023-04-09T09:33:10.098Z,38.9782
2023-04-09T09:34:13.226Z,38.4177
2023-04-09T09:35:16.371Z,37.5256
2023-04-09T09:36:19.530Z,37.1033
2023-04-09T09:37:22.684Z,37.0333
2023-04-09T09:38:26.052Z,36.7199
2023-04-09T09:39:29.175Z,36.8143
2023-04-09T09:40:32.490Z,36.7534
2023-04-09T09:41:35.608Z,36.7947
2023-04-09T09:42:38.772Z,36.3879
2023-04-09T09:43:42.172Z,35.6035
2023-04-09T09:44:45.337Z,34.9178
2023-04-09T09:45:48.495Z,35.0455
2023-04-09T09:46:51.632Z,35.1008
2023-04-09T09:47:54.867Z,35.2295
2023-04-09T09:48:58.016Z,35.2361
2023-04-09T09:50:01.178Z,35.0043
2023-04-09T09:51:04.509Z,34.8274
2023-04-09T09:52:07.635Z,34.7750
2023-04-09T09:53:10.951Z,34.8016
2023-04-09T09:54:14.042Z,34.6153
2023-04-09T09:55:17.175Z,34.5336
2023-04-09T09:56:20.328Z,34.2564
2023-04-09T09:57:23.471Z,34.1307
2023-04-09T09:58:26.626Z,34.0674
2023-04-09T09:59:29.752Z,34.1405
2023-04-09T10:00:33.168Z,33.8138
2023-04-09T10:01:36.348Z,33.6295
2023-04-09T10:02:39.615Z,33.6850
2023-04-09T10:03:42.733Z,33.7976
2023-04-09T10:04:45.968Z,33.6879
2023-04-09T10:05:49.169Z,33.5604
2023-04-09T10:06:53.425Z,33.4719
2023-04-09T10:07:53.283Z,33.3251
2023-04-09T10:08:56.664Z,33.2197
2023-04-09T10:09:59.801Z,32.7592
2023-04-09T10:11:02.910Z,32.4912
2023-04-09T10:12:06.050Z,32.5799
2023-04-09T10:13:09.190Z,32.5877
2023-04-09T10:14:12.313Z,32.2823
2023-04-09T10:15:15.488Z,32.5425
2023-04-09T10:16:18.605Z,32.3728
2023-04-09T10:17:21.818Z,31.9889
2023-04-09T10:18:24.979Z,32.0883
2023-04-09T10:19:28.113Z,32.0468
2023-04-09T10:20:31.232Z,31.4953
2023-04-09T10:21:34.373Z,31.3523
2023-04-09T10:22:37.525Z,30.8088
2023-04-09T10:23:40.695Z,30.7927
2023-04-09T10:24:43.821Z,30.7441
2023-04-09T10:25:46.991Z,30.8297
2023-04-09T10:26:50.277Z,30.9877
2023-04-09T10:27:53.456Z,31.2007
2023-04-09T10:28:56.573Z,31.1865
2023-04-09T10:29:59.710Z,31.1977
2023-04-09T10:31:02.990Z,30.8996
2023-04-09T10:32:06.205Z,30.3849
2023-04-09T10:33:09.354Z,29.7834
2023-04-09T10:34:12.473Z,29.5267
2023-04-09T10:35:15.634Z,29.8498
2023-04-09T10:36:18.796Z,30.1222
2023-04-09T10:37:21.917Z,30.3369
2023-04-09T10:38:25.036Z,30.5550
2023-04-09T10:39:28.199Z,30.3971
2023-04-09T10:40:31.312Z,30.1457
2023-04-09T10:41:34.451Z,30.3127
2023-04-09T10:42:37.578Z,30.5443
2023-04-09T10:43:40.745Z,30.8807
2023-04-09T10:44:43.894Z,31.1194
2023-04-09T10:45:47.031Z,31.1448
2023-04-09T10:46:50.281Z,31.0856
2023-04-09T10:47:53.492Z,30.1950
2023-04-09T10:48:56.614Z,29.9454
2023-04-09T10:49:59.756Z,29.8339
2023-04-09T10:51:03.056Z,30.1552
2023-04-09T10:52:06.173Z,30.5752
2023-04-09T10:53:09.302Z,30.7592
2023-04-09T10:54:12.545Z,30.7644
2023-04-09T10:55:15.647Z,30.3972
2023-04-09T10:56:18.787Z,30.4941
2023-04-09T10:57:21.918Z,30.7227
2023-04-09T10:58:25.116Z,30.8989
2023-04-09T10:59:28.278Z,30.9939
2023-04-09T11:00:31.394Z,30.9525
2023-04-09T11:01:34.654Z,30.5774
2023-04-09T11:02:37.927Z,30.4388
2023-04-09T11:03:41.130Z,30.6250
2023-04-09T11:04:44.351Z,30.8656
2023-04-09T11:05:47.524Z,30.8950
2023-04-09T11:06:50.712Z,31.0693
2023-04-09T11:07:53.839Z,30.9928
2023-04-09T11:08:56.970Z,31.2443
2023-04-09T11:10:00.141Z,31.2730
2023-04-09T11:11:00.160Z,31.3525
2023-04-09T11:12:03.235Z,31.4585
2023-04-09T11:13:06.377Z,31.1636
2023-04-09T11:14:07.639Z,30.7089
2023-04-09T11:15:10.824Z,30.4540
2023-04-09T11:16:24.350Z,30.2942
2023-04-09T11:17:16.290Z,30.0956
2023-04-09T11:18:19.418Z,29.8239
2023-04-09T11:19:22.579Z,29.4312
2023-04-09T11:20:25.725Z,29.5162
2023-04-09T11:21:29.167Z,28.6780
2023-04-09T11:22:32.364Z,28.3799
2023-04-09T11:23:35.710Z,28.3005
2023-04-09T11:24:38.788Z,27.9934
2023-04-09T11:25:41.990Z,27.5786
2023-04-09T11:26:45.113Z,27.8881
2023-04-09T11:27:48.276Z,27.9343
2023-04-09T11:28:51.630Z,27.7871
2023-04-09T11:29:54.874Z,27.4776
2023-04-09T11:30:58.007Z,27.6000
2023-04-09T11:32:01.307Z,27.3656
2023-04-09T11:33:04.550Z,26.8801
2023-04-09T11:34:07.741Z,26.5274
2023-04-09T11:35:10.866Z,26.2070
2023-04-09T11:36:13.998Z,26.1347
2023-04-09T11:37:17.125Z,25.8763
2023-04-09T11:38:20.480Z,25.6906
2023-04-09T11:39:23.626Z,25.4658
2023-04-09T11:40:26.762Z,25.3520
2023-04-09T11:41:29.912Z,25.6232
2023-04-09T11:42:33.028Z,25.7437
2023-04-09T11:43:36.187Z,26.4191
2023-04-09T11:44:39.392Z,27.0388
2023-04-09T11:45:42.544Z,27.6216
2023-04-09T11:46:45.804Z,27.9085
2023-04-09T11:47:48.963Z,28.0888
2023-04-09T11:48:52.319Z,28.3208
2023-04-09T11:49:55.536Z,28.5329
2023-04-09T11:50:58.872Z,28.8044
2023-04-09T11:52:02.024Z,28.6989
2023-04-09T11:53:05.245Z,27.9677
2023-04-09T11:54:08.408Z,27.1541
2023-04-09T11:55:11.597Z,26.6619
2023-04-09T11:56:14.747Z,26.4407
2023-04-09T11:57:17.942Z,26.1739
2023-04-09T11:58:21.179Z,26.2430
2023-04-09T11:59:24.367Z,26.1983
2023-04-09T12:00:27.521Z,25.9285
2023-04-09T12:01:30.705Z,25.5005
2023-04-09T12:02:34.017Z,25.2753
2023-04-09T12:03:37.436Z,24.9087
2023-04-09T12:04:37.401Z,24.6239
2023-04-09T12:05:42.832Z,24.6789
2023-04-09T12:06:43.910Z,24.1617
2023-04-09T12:07:55.570Z,24.2304
2023-04-09T12:08:49.243Z,24.4528
2023-04-09T12:09:52.453Z,24.5935
2023-04-09T12:10:55.816Z,24.4059
2023-04-09T12:11:58.991Z,24.3300
2023-04-09T12:13:02.160Z,24.1033
2023-04-09T12:14:05.355Z,24.1357
2023-04-09T12:15:08.528Z,23.6255
2023-04-09T12:16:11.801Z,23.8211
2023-04-09T12:17:14.991Z,23.7435
2023-04-09T12:18:18.154Z,23.6344
2023-04-09T12:19:21.363Z,23.0757
2023-04-09T12:20:24.520Z,22.9087
2023-04-09T12:21:27.713Z,22.8760
2023-04-09T12:22:30.871Z,22.1651
2023-04-09T12:23:34.103Z,21.8963
2023-04-09T12:24:37.254Z,21.8575
2023-04-09T12:25:40.468Z,22.1067
2023-04-09T12:26:43.603Z,22.1492
2023-04-09T12:27:46.792Z,22.1088
2023-04-09T12:28:50.250Z,22.2170
2023-04-09T12:29:53.503Z,22.3667
2023-04-09T12:30:56.702Z,22.2903
2023-04-09T12:32:00.005Z,22.0967
2023-04-09T12:33:03.345Z,22.1822
2023-04-09T12:34:03.417Z,22.3604
2023-04-09T12:35:06.658Z,22.0399
2023-04-09T12:36:10.069Z,21.8043
2023-04-09T12:37:13.273Z,21.6097
2023-04-09T12:38:16.419Z,21.6094
2023-04-09T12:39:19.643Z,21.6664
2023-04-09T12:40:22.830Z,21.4286
2023-04-09T12:41:26.074Z,21.5501
2023-04-09T12:42:29.267Z,21.5841